sensor_id;sensor_type;location;lat;lon;timestamp;P1;durP1;ratioP1;P2;durP2;ratioP2
13147;SDS011;6639;50.956;4.242;2024-01-10T00:02:19;5.57;;;4.67;;
13147;SDS011;6639;50.956;4.242;2024-01-10T00:04:46;4.90;;;3.43;;
13147;SDS011;6639;50.956;4.242;2024-01-10T00:07:16;5.83;;;3.63;;
13147;SDS011;6639;50.956;4.242;2024-01-10T00:09:45;3.53;;;2.53;;
13147;SDS011;6639;50.956;4.242;2024-01-10T00:12:13;6.73;;;3.43;;
13147;SDS011;6639;50.956;4.242;2024-01-10T00:14:41;4.97;;;3.83;;
13147;SDS011;6639;50.956;4.242;2024-01-10T00:17:08;6.37;;;3.70;;
13147;SDS011;6639;50.956;4.242;2024-01-10T00:19:35;7.03;;;4.13;;
13147;SDS011;6639;50.956;4.242;2024-01-10T00:22:02;7.40;;;4.67;;
13147;SDS011;6639;50.956;4.242;2024-01-10T00:24:30;4.90;;;3.60;;
13147;SDS011;6639;50.956;4.242;2024-01-10T00:26:59;5.97;;;4.50;;
13147;SDS011;6639;50.956;4.242;2024-01-10T00:29:26;5.80;;;3.83;;
13147;SDS011;6639;50.956;4.242;2024-01-10T00:31:53;7.60;;;3.80;;
13147;SDS011;6639;50.956;4.242;2024-01-10T00:34:24;5.87;;;3.90;;
13147;SDS011;6639;50.956;4.242;2024-01-10T00:36:52;5.03;;;3.83;;
13147;SDS011;6639;50.956;4.242;2024-01-10T00:39:19;4.23;;;3.30;;
13147;SDS011;6639;50.956;4.242;2024-01-10T00:41:47;5.43;;;3.70;;
13147;SDS011;6639;50.956;4.242;2024-01-10T00:44:15;7.53;;;4.70;;
13147;SDS011;6639;50.956;4.242;2024-01-10T00:46:42;7.47;;;3.70;;
13147;SDS011;6639;50.956;4.242;2024-01-10T00:49:09;4.63;;;3.50;;
13147;SDS011;6639;50.956;4.242;2024-01-10T00:51:36;4.07;;;3.67;;
13147;SDS011;6639;50.956;4.242;2024-01-10T00:54:04;4.83;;;3.60;;
13147;SDS011;6639;50.956;4.242;2024-01-10T00:56:31;6.90;;;4.40;;
13147;SDS011;6639;50.956;4.242;2024-01-10T00:59:00;8.17;;;4.60;;
13147;SDS011;6639;50.956;4.242;2024-01-10T01:01:28;7.40;;;3.33;;
13147;SDS011;6639;50.956;4.242;2024-01-10T01:03:55;6.13;;;4.23;;
13147;SDS011;6639;50.956;4.242;2024-01-10T01:06:24;5.60;;;3.83;;
13147;SDS011;6639;50.956;4.242;2024-01-10T01:08:51;4.87;;;3.77;;
13147;SDS011;6639;50.956;4.242;2024-01-10T01:11:18;4.13;;;3.73;;
13147;SDS011;6639;50.956;4.242;2024-01-10T01:13:47;5.13;;;3.30;;
13147;SDS011;6639;50.956;4.242;2024-01-10T01:16:16;5.23;;;3.83;;
13147;SDS011;6639;50.956;4.242;2024-01-10T01:18:45;4.13;;;3.67;;
13147;SDS011;6639;50.956;4.242;2024-01-10T01:21:12;9.53;;;4.10;;
13147;SDS011;6639;50.956;4.242;2024-01-10T01:23:39;5.30;;;3.97;;
13147;SDS011;6639;50.956;4.242;2024-01-10T01:26:07;6.33;;;3.63;;
13147;SDS011;6639;50.956;4.242;2024-01-10T01:28:34;10.10;;;4.73;;
13147;SDS011;6639;50.956;4.242;2024-01-10T01:31:01;12.17;;;4.47;;
13147;SDS011;6639;50.956;4.242;2024-01-10T01:33:30;6.83;;;3.97;;
13147;SDS011;6639;50.956;4.242;2024-01-10T01:35:59;5.43;;;3.67;;
13147;SDS011;6639;50.956;4.242;2024-01-10T01:38:26;4.00;;;3.43;;
13147;SDS011;6639;50.956;4.242;2024-01-10T01:40:53;5.03;;;3.60;;
13147;SDS011;6639;50.956;4.242;2024-01-10T01:43:21;4.57;;;3.60;;
13147;SDS011;6639;50.956;4.242;2024-01-10T01:45:50;5.20;;;4.17;;
13147;SDS011;6639;50.956;4.242;2024-01-10T01:48:19;4.30;;;3.40;;
13147;SDS011;6639;50.956;4.242;2024-01-10T01:50:49;6.67;;;3.70;;
13147;SDS011;6639;50.956;4.242;2024-01-10T01:53:20;5.40;;;3.30;;
13147;SDS011;6639;50.956;4.242;2024-01-10T01:55:50;10.70;;;4.23;;
13147;SDS011;6639;50.956;4.242;2024-01-10T01:58:17;6.73;;;3.73;;
13147;SDS011;6639;50.956;4.242;2024-01-10T02:00:45;4.50;;;3.40;;
13147;SDS011;6639;50.956;4.242;2024-01-10T02:03:13;8.00;;;4.10;;
13147;SDS011;6639;50.956;4.242;2024-01-10T02:05:41;6.40;;;3.90;;
13147;SDS011;6639;50.956;4.242;2024-01-10T02:08:10;5.57;;;3.87;;
13147;SDS011;6639;50.956;4.242;2024-01-10T02:10:39;5.37;;;4.10;;
13147;SDS011;6639;50.956;4.242;2024-01-10T02:13:06;4.50;;;3.47;;
13147;SDS011;6639;50.956;4.242;2024-01-10T02:15:36;7.70;;;4.00;;
13147;SDS011;6639;50.956;4.242;2024-01-10T02:18:06;6.40;;;4.13;;
13147;SDS011;6639;50.956;4.242;2024-01-10T02:20:35;6.00;;;3.87;;
13147;SDS011;6639;50.956;4.242;2024-01-10T02:23:03;6.50;;;3.70;;
13147;SDS011;6639;50.956;4.242;2024-01-10T02:25:32;4.50;;;3.50;;
13147;SDS011;6639;50.956;4.242;2024-01-10T02:27:59;5.93;;;4.53;;
13147;SDS011;6639;50.956;4.242;2024-01-10T02:30:26;3.83;;;3.50;;
13147;SDS011;6639;50.956;4.242;2024-01-10T02:32:54;6.27;;;3.57;;
13147;SDS011;6639;50.956;4.242;2024-01-10T02:35:21;8.47;;;3.77;;
13147;SDS011;6639;50.956;4.242;2024-01-10T02:37:48;5.60;;;4.33;;
13147;SDS011;6639;50.956;4.242;2024-01-10T02:40:19;6.77;;;4.07;;
13147;SDS011;6639;50.956;4.242;2024-01-10T02:42:48;3.87;;;3.30;;
13147;SDS011;6639;50.956;4.242;2024-01-10T02:45:16;7.73;;;4.37;;
13147;SDS011;6639;50.956;4.242;2024-01-10T02:47:43;5.73;;;3.40;;
13147;SDS011;6639;50.956;4.242;2024-01-10T02:50:11;8.00;;;4.87;;
13147;SDS011;6639;50.956;4.242;2024-01-10T02:52:38;6.70;;;4.20;;
13147;SDS011;6639;50.956;4.242;2024-01-10T02:55:06;4.90;;;3.60;;
13147;SDS011;6639;50.956;4.242;2024-01-10T02:57:33;8.17;;;4.33;;
13147;SDS011;6639;50.956;4.242;2024-01-10T03:00:01;6.53;;;4.20;;
13147;SDS011;6639;50.956;4.242;2024-01-10T03:02:29;6.13;;;4.23;;
13147;SDS011;6639;50.956;4.242;2024-01-10T03:04:56;7.60;;;4.50;;
13147;SDS011;6639;50.956;4.242;2024-01-10T03:07:23;7.67;;;4.13;;
13147;SDS011;6639;50.956;4.242;2024-01-10T03:09:51;6.70;;;3.87;;
13147;SDS011;6639;50.956;4.242;2024-01-10T03:12:18;7.83;;;3.87;;
13147;SDS011;6639;50.956;4.242;2024-01-10T03:14:45;6.93;;;4.70;;
13147;SDS011;6639;50.956;4.242;2024-01-10T03:17:16;6.87;;;3.70;;
13147;SDS011;6639;50.956;4.242;2024-01-10T03:19:43;6.07;;;3.67;;
13147;SDS011;6639;50.956;4.242;2024-01-10T03:22:11;5.00;;;3.47;;
13147;SDS011;6639;50.956;4.242;2024-01-10T03:24:38;7.73;;;4.07;;
13147;SDS011;6639;50.956;4.242;2024-01-10T03:27:05;5.47;;;3.60;;
13147;SDS011;6639;50.956;4.242;2024-01-10T03:29:32;7.33;;;4.20;;
13147;SDS011;6639;50.956;4.242;2024-01-10T03:32:00;6.63;;;4.07;;
13147;SDS011;6639;50.956;4.242;2024-01-10T03:34:28;8.33;;;4.17;;
13147;SDS011;6639;50.956;4.242;2024-01-10T03:36:55;5.73;;;3.93;;
13147;SDS011;6639;50.956;4.242;2024-01-10T03:39:22;6.37;;;3.63;;
13147;SDS011;6639;50.956;4.242;2024-01-10T03:41:49;5.53;;;3.90;;
13147;SDS011;6639;50.956;4.242;2024-01-10T03:44:16;8.07;;;4.77;;
13147;SDS011;6639;50.956;4.242;2024-01-10T03:46:42;3.40;;;3.10;;
13147;SDS011;6639;50.956;4.242;2024-01-10T03:49:09;6.57;;;3.93;;
13147;SDS011;6639;50.956;4.242;2024-01-10T03:51:38;6.93;;;4.27;;
13147;SDS011;6639;50.956;4.242;2024-01-10T03:54:05;8.53;;;4.60;;
13147;SDS011;6639;50.956;4.242;2024-01-10T03:56:32;10.80;;;4.83;;
13147;SDS011;6639;50.956;4.242;2024-01-10T03:58:59;4.93;;;3.53;;
13147;SDS011;6639;50.956;4.242;2024-01-10T04:01:26;7.07;;;4.60;;
13147;SDS011;6639;50.956;4.242;2024-01-10T04:03:53;6.17;;;4.57;;
13147;SDS011;6639;50.956;4.242;2024-01-10T04:06:20;5.57;;;3.77;;
13147;SDS011;6639;50.956;4.242;2024-01-10T04:08:48;6.90;;;3.73;;
13147;SDS011;6639;50.956;4.242;2024-01-10T04:11:15;6.80;;;4.30;;
13147;SDS011;6639;50.956;4.242;2024-01-10T04:13:42;7.13;;;3.57;;
13147;SDS011;6639;50.956;4.242;2024-01-10T04:16:09;5.23;;;3.80;;
13147;SDS011;6639;50.956;4.242;2024-01-10T04:18:36;4.53;;;3.77;;
13147;SDS011;6639;50.956;4.242;2024-01-10T04:21:03;4.40;;;3.10;;
13147;SDS011;6639;50.956;4.242;2024-01-10T04:23:30;4.93;;;3.40;;
13147;SDS011;6639;50.956;4.242;2024-01-10T04:26:00;7.73;;;4.33;;
13147;SDS011;6639;50.956;4.242;2024-01-10T04:28:28;5.93;;;4.30;;
13147;SDS011;6639;50.956;4.242;2024-01-10T04:30:54;5.53;;;3.70;;
13147;SDS011;6639;50.956;4.242;2024-01-10T04:33:20;7.50;;;4.13;;
13147;SDS011;6639;50.956;4.242;2024-01-10T04:35:47;5.60;;;3.70;;
13147;SDS011;6639;50.956;4.242;2024-01-10T04:38:14;8.27;;;4.23;;
13147;SDS011;6639;50.956;4.242;2024-01-10T04:40:41;6.93;;;4.17;;
13147;SDS011;6639;50.956;4.242;2024-01-10T04:43:09;5.43;;;3.83;;
13147;SDS011;6639;50.956;4.242;2024-01-10T04:45:36;5.17;;;3.30;;
13147;SDS011;6639;50.956;4.242;2024-01-10T04:48:03;6.13;;;4.07;;
13147;SDS011;6639;50.956;4.242;2024-01-10T04:50:31;8.53;;;4.13;;
13147;SDS011;6639;50.956;4.242;2024-01-10T04:52:57;7.77;;;4.13;;
13147;SDS011;6639;50.956;4.242;2024-01-10T04:55:24;6.27;;;3.47;;
13147;SDS011;6639;50.956;4.242;2024-01-10T04:57:53;5.87;;;4.27;;
13147;SDS011;6639;50.956;4.242;2024-01-10T05:00:21;4.80;;;3.80;;
13147;SDS011;6639;50.956;4.242;2024-01-10T05:02:47;6.23;;;4.07;;
13147;SDS011;6639;50.956;4.242;2024-01-10T05:05:14;5.50;;;3.90;;
13147;SDS011;6639;50.956;4.242;2024-01-10T05:07:41;3.73;;;3.07;;
13147;SDS011;6639;50.956;4.242;2024-01-10T05:10:08;4.73;;;3.43;;
13147;SDS011;6639;50.956;4.242;2024-01-10T05:12:35;5.27;;;3.73;;
13147;SDS011;6639;50.956;4.242;2024-01-10T05:15:02;5.57;;;3.70;;
13147;SDS011;6639;50.956;4.242;2024-01-10T05:17:30;5.90;;;3.67;;
13147;SDS011;6639;50.956;4.242;2024-01-10T05:19:57;9.03;;;4.30;;
13147;SDS011;6639;50.956;4.242;2024-01-10T05:22:24;5.77;;;3.87;;
13147;SDS011;6639;50.956;4.242;2024-01-10T05:24:51;4.87;;;3.27;;
13147;SDS011;6639;50.956;4.242;2024-01-10T05:27:18;7.63;;;3.77;;
13147;SDS011;6639;50.956;4.242;2024-01-10T05:29:44;5.17;;;3.83;;
13147;SDS011;6639;50.956;4.242;2024-01-10T05:32:11;8.50;;;4.50;;
13147;SDS011;6639;50.956;4.242;2024-01-10T05:34:39;9.63;;;4.37;;
13147;SDS011;6639;50.956;4.242;2024-01-10T05:37:06;5.50;;;3.67;;
13147;SDS011;6639;50.956;4.242;2024-01-10T05:39:33;4.90;;;3.70;;
13147;SDS011;6639;50.956;4.242;2024-01-10T05:42:00;7.80;;;5.23;;
13147;SDS011;6639;50.956;4.242;2024-01-10T05:44:27;11.77;;;5.40;;
13147;SDS011;6639;50.956;4.242;2024-01-10T05:46:54;8.03;;;4.07;;
13147;SDS011;6639;50.956;4.242;2024-01-10T05:49:24;8.57;;;4.17;;
13147;SDS011;6639;50.956;4.242;2024-01-10T05:51:52;5.87;;;4.40;;
13147;SDS011;6639;50.956;4.242;2024-01-10T05:54:19;5.63;;;4.33;;
13147;SDS011;6639;50.956;4.242;2024-01-10T05:56:47;4.37;;;2.80;;
13147;SDS011;6639;50.956;4.242;2024-01-10T05:59:14;7.13;;;4.10;;
13147;SDS011;6639;50.956;4.242;2024-01-10T06:01:42;6.07;;;3.93;;
13147;SDS011;6639;50.956;4.242;2024-01-10T06:04:09;4.10;;;3.53;;
13147;SDS011;6639;50.956;4.242;2024-01-10T06:06:35;5.37;;;3.87;;
13147;SDS011;6639;50.956;4.242;2024-01-10T06:09:04;6.10;;;4.30;;
13147;SDS011;6639;50.956;4.242;2024-01-10T06:11:31;6.37;;;4.37;;
13147;SDS011;6639;50.956;4.242;2024-01-10T06:13:58;5.93;;;4.00;;
13147;SDS011;6639;50.956;4.242;2024-01-10T06:16:24;3.47;;;3.17;;
13147;SDS011;6639;50.956;4.242;2024-01-10T06:18:51;4.17;;;3.27;;
13147;SDS011;6639;50.956;4.242;2024-01-10T06:21:18;5.17;;;3.60;;
13147;SDS011;6639;50.956;4.242;2024-01-10T06:23:45;4.67;;;3.43;;
13147;SDS011;6639;50.956;4.242;2024-01-10T06:26:14;5.13;;;3.63;;
13147;SDS011;6639;50.956;4.242;2024-01-10T06:28:41;2.93;;;2.67;;
13147;SDS011;6639;50.956;4.242;2024-01-10T06:31:08;6.80;;;3.67;;
13147;SDS011;6639;50.956;4.242;2024-01-10T06:33:35;5.10;;;3.97;;
13147;SDS011;6639;50.956;4.242;2024-01-10T06:36:03;4.87;;;3.67;;
13147;SDS011;6639;50.956;4.242;2024-01-10T06:38:31;4.57;;;3.53;;
13147;SDS011;6639;50.956;4.242;2024-01-10T06:40:58;9.43;;;4.57;;
13147;SDS011;6639;50.956;4.242;2024-01-10T06:43:26;6.53;;;3.70;;
13147;SDS011;6639;50.956;4.242;2024-01-10T06:45:53;6.30;;;3.53;;
13147;SDS011;6639;50.956;4.242;2024-01-10T06:48:21;5.63;;;4.27;;
13147;SDS011;6639;50.956;4.242;2024-01-10T06:50:48;7.03;;;3.97;;
13147;SDS011;6639;50.956;4.242;2024-01-10T06:53:15;5.13;;;4.30;;
13147;SDS011;6639;50.956;4.242;2024-01-10T06:55:42;5.53;;;3.70;;
13147;SDS011;6639;50.956;4.242;2024-01-10T06:58:09;7.57;;;4.40;;
13147;SDS011;6639;50.956;4.242;2024-01-10T07:00:37;4.83;;;3.50;;
13147;SDS011;6639;50.956;4.242;2024-01-10T07:03:04;5.23;;;3.47;;
13147;SDS011;6639;50.956;4.242;2024-01-10T07:05:31;6.93;;;3.80;;
13147;SDS011;6639;50.956;4.242;2024-01-10T07:07:58;4.80;;;3.73;;
13147;SDS011;6639;50.956;4.242;2024-01-10T07:10:27;5.00;;;3.57;;
13147;SDS011;6639;50.956;4.242;2024-01-10T07:12:55;5.80;;;4.10;;
13147;SDS011;6639;50.956;4.242;2024-01-10T07:15:22;7.17;;;3.90;;
13147;SDS011;6639;50.956;4.242;2024-01-10T07:17:50;6.10;;;3.90;;
13147;SDS011;6639;50.956;4.242;2024-01-10T07:20:17;5.07;;;3.50;;
13147;SDS011;6639;50.956;4.242;2024-01-10T07:22:44;6.97;;;3.77;;
13147;SDS011;6639;50.956;4.242;2024-01-10T07:25:10;5.27;;;3.63;;
13147;SDS011;6639;50.956;4.242;2024-01-10T07:27:39;7.10;;;4.23;;
13147;SDS011;6639;50.956;4.242;2024-01-10T07:30:06;5.73;;;4.67;;
13147;SDS011;6639;50.956;4.242;2024-01-10T07:32:38;7.87;;;4.23;;
13147;SDS011;6639;50.956;4.242;2024-01-10T07:35:08;6.83;;;4.50;;
13147;SDS011;6639;50.956;4.242;2024-01-10T07:37:36;5.87;;;3.90;;
13147;SDS011;6639;50.956;4.242;2024-01-10T07:40:03;8.67;;;3.40;;
13147;SDS011;6639;50.956;4.242;2024-01-10T07:42:32;6.23;;;4.77;;
13147;SDS011;6639;50.956;4.242;2024-01-10T07:44:59;5.27;;;3.83;;
13147;SDS011;6639;50.956;4.242;2024-01-10T07:47:29;6.50;;;3.70;;
13147;SDS011;6639;50.956;4.242;2024-01-10T07:49:56;9.30;;;3.93;;
13147;SDS011;6639;50.956;4.242;2024-01-10T07:52:24;6.90;;;3.93;;
13147;SDS011;6639;50.956;4.242;2024-01-10T07:54:51;5.87;;;4.10;;
13147;SDS011;6639;50.956;4.242;2024-01-10T07:57:18;5.27;;;3.87;;
13147;SDS011;6639;50.956;4.242;2024-01-10T07:59:45;7.40;;;3.80;;
13147;SDS011;6639;50.956;4.242;2024-01-10T08:02:12;7.40;;;5.07;;
13147;SDS011;6639;50.956;4.242;2024-01-10T08:04:39;6.90;;;4.07;;
13147;SDS011;6639;50.956;4.242;2024-01-10T08:07:06;7.63;;;3.97;;
13147;SDS011;6639;50.956;4.242;2024-01-10T08:09:34;8.50;;;4.13;;
13147;SDS011;6639;50.956;4.242;2024-01-10T08:12:01;7.07;;;4.80;;
13147;SDS011;6639;50.956;4.242;2024-01-10T08:14:29;8.60;;;4.57;;
13147;SDS011;6639;50.956;4.242;2024-01-10T08:16:55;5.17;;;4.00;;
13147;SDS011;6639;50.956;4.242;2024-01-10T08:19:23;9.20;;;4.80;;
13147;SDS011;6639;50.956;4.242;2024-01-10T08:21:51;7.90;;;4.53;;
13147;SDS011;6639;50.956;4.242;2024-01-10T08:24:18;6.67;;;3.97;;
13147;SDS011;6639;50.956;4.242;2024-01-10T08:26:47;7.53;;;4.10;;
13147;SDS011;6639;50.956;4.242;2024-01-10T08:29:16;6.23;;;3.97;;
13147;SDS011;6639;50.956;4.242;2024-01-10T08:31:43;8.63;;;4.30;;
13147;SDS011;6639;50.956;4.242;2024-01-10T08:34:10;5.13;;;4.13;;
13147;SDS011;6639;50.956;4.242;2024-01-10T08:36:37;4.90;;;4.13;;
13147;SDS011;6639;50.956;4.242;2024-01-10T08:39:04;7.20;;;4.33;;
13147;SDS011;6639;50.956;4.242;2024-01-10T08:41:31;10.40;;;4.90;;
13147;SDS011;6639;50.956;4.242;2024-01-10T08:44:00;6.57;;;4.70;;
13147;SDS011;6639;50.956;4.242;2024-01-10T08:46:27;7.97;;;5.50;;
13147;SDS011;6639;50.956;4.242;2024-01-10T08:48:54;6.83;;;5.23;;
13147;SDS011;6639;50.956;4.242;2024-01-10T08:51:21;6.43;;;4.67;;
13147;SDS011;6639;50.956;4.242;2024-01-10T08:53:49;7.40;;;4.17;;
13147;SDS011;6639;50.956;4.242;2024-01-10T08:56:16;6.33;;;4.97;;
13147;SDS011;6639;50.956;4.242;2024-01-10T08:58:43;5.40;;;4.23;;
13147;SDS011;6639;50.956;4.242;2024-01-10T09:01:11;6.63;;;5.27;;
13147;SDS011;6639;50.956;4.242;2024-01-10T09:03:38;6.23;;;4.63;;
13147;SDS011;6639;50.956;4.242;2024-01-10T09:06:05;7.37;;;5.60;;
13147;SDS011;6639;50.956;4.242;2024-01-10T09:08:33;6.63;;;5.37;;
13147;SDS011;6639;50.956;4.242;2024-01-10T09:11:00;6.50;;;5.10;;
13147;SDS011;6639;50.956;4.242;2024-01-10T09:13:28;6.17;;;4.57;;
13147;SDS011;6639;50.956;4.242;2024-01-10T09:15:55;7.27;;;4.83;;
13147;SDS011;6639;50.956;4.242;2024-01-10T09:18:23;6.87;;;4.67;;
13147;SDS011;6639;50.956;4.242;2024-01-10T09:20:50;4.87;;;4.37;;
13147;SDS011;6639;50.956;4.242;2024-01-10T09:23:17;7.87;;;5.10;;
13147;SDS011;6639;50.956;4.242;2024-01-10T09:25:44;5.70;;;4.37;;
13147;SDS011;6639;50.956;4.242;2024-01-10T09:28:10;9.27;;;5.47;;
13147;SDS011;6639;50.956;4.242;2024-01-10T09:30:38;7.60;;;4.90;;
13147;SDS011;6639;50.956;4.242;2024-01-10T09:33:05;8.53;;;5.90;;
13147;SDS011;6639;50.956;4.242;2024-01-10T09:35:34;12.23;;;6.93;;
13147;SDS011;6639;50.956;4.242;2024-01-10T09:38:00;5.80;;;5.00;;
13147;SDS011;6639;50.956;4.242;2024-01-10T09:40:27;9.33;;;6.43;;
13147;SDS011;6639;50.956;4.242;2024-01-10T09:42:54;5.93;;;4.37;;
13147;SDS011;6639;50.956;4.242;2024-01-10T09:45:22;6.83;;;5.30;;
13147;SDS011;6639;50.956;4.242;2024-01-10T09:47:52;8.87;;;5.67;;
13147;SDS011;6639;50.956;4.242;2024-01-10T09:50:22;7.97;;;5.27;;
13147;SDS011;6639;50.956;4.242;2024-01-10T09:52:53;10.30;;;5.47;;
13147;SDS011;6639;50.956;4.242;2024-01-10T09:55:24;8.53;;;4.87;;
13147;SDS011;6639;50.956;4.242;2024-01-10T09:57:55;7.27;;;5.67;;
13147;SDS011;6639;50.956;4.242;2024-01-10T10:00:22;8.10;;;5.47;;
13147;SDS011;6639;50.956;4.242;2024-01-10T10:02:50;8.20;;;6.13;;
13147;SDS011;6639;50.956;4.242;2024-01-10T10:05:20;9.00;;;6.07;;
13147;SDS011;6639;50.956;4.242;2024-01-10T10:07:49;7.83;;;5.63;;
13147;SDS011;6639;50.956;4.242;2024-01-10T10:10:19;8.33;;;6.03;;
13147;SDS011;6639;50.956;4.242;2024-01-10T10:12:47;9.23;;;6.20;;
13147;SDS011;6639;50.956;4.242;2024-01-10T10:15:18;11.07;;;6.87;;
13147;SDS011;6639;50.956;4.242;2024-01-10T10:17:47;7.13;;;5.80;;
13147;SDS011;6639;50.956;4.242;2024-01-10T10:20:19;8.80;;;6.43;;
13147;SDS011;6639;50.956;4.242;2024-01-10T10:22:57;9.97;;;6.07;;
13147;SDS011;6639;50.956;4.242;2024-01-10T10:25:43;9.50;;;6.90;;
13147;SDS011;6639;50.956;4.242;2024-01-10T10:28:12;11.10;;;6.20;;
13147;SDS011;6639;50.956;4.242;2024-01-10T10:30:39;7.87;;;6.07;;
13147;SDS011;6639;50.956;4.242;2024-01-10T10:33:06;10.20;;;5.83;;
13147;SDS011;6639;50.956;4.242;2024-01-10T10:35:33;7.78;;;6.03;;
13147;SDS011;6639;50.956;4.242;2024-01-10T10:38:00;7.47;;;6.37;;
13147;SDS011;6639;50.956;4.242;2024-01-10T10:40:29;8.50;;;6.80;;
13147;SDS011;6639;50.956;4.242;2024-01-10T10:42:57;9.60;;;6.87;;
13147;SDS011;6639;50.956;4.242;2024-01-10T10:45:24;8.23;;;7.00;;
13147;SDS011;6639;50.956;4.242;2024-01-10T10:47:54;9.68;;;6.43;;
13147;SDS011;6639;50.956;4.242;2024-01-10T10:50:26;8.65;;;6.40;;
13147;SDS011;6639;50.956;4.242;2024-01-10T10:52:56;10.10;;;6.32;;
13147;SDS011;6639;50.956;4.242;2024-01-10T10:55:24;7.75;;;6.18;;
13147;SDS011;6639;50.956;4.242;2024-01-10T10:57:54;9.55;;;6.28;;
13147;SDS011;6639;50.956;4.242;2024-01-10T11:00:23;8.20;;;6.63;;
13147;SDS011;6639;50.956;4.242;2024-01-10T11:02:52;9.68;;;7.47;;
13147;SDS011;6639;50.956;4.242;2024-01-10T11:05:20;9.45;;;6.93;;
13147;SDS011;6639;50.956;4.242;2024-01-10T11:07:47;7.75;;;6.13;;
13147;SDS011;6639;50.956;4.242;2024-01-10T11:10:17;7.70;;;6.38;;
13147;SDS011;6639;50.956;4.242;2024-01-10T11:12:59;8.55;;;6.75;;
13147;SDS011;6639;50.956;4.242;2024-01-10T11:15:39;7.72;;;6.20;;
13147;SDS011;6639;50.956;4.242;2024-01-10T11:18:27;12.77;;;7.53;;
13147;SDS011;6639;50.956;4.242;2024-01-10T11:21:11;9.20;;;6.47;;
13147;SDS011;6639;50.956;4.242;2024-01-10T11:23:50;12.77;;;6.72;;
13147;SDS011;6639;50.956;4.242;2024-01-10T11:26:20;10.25;;;7.50;;
13147;SDS011;6639;50.956;4.242;2024-01-10T11:28:49;9.45;;;6.32;;
13147;SDS011;6639;50.956;4.242;2024-01-10T11:31:26;9.70;;;6.97;;
13147;SDS011;6639;50.956;4.242;2024-01-10T11:33:55;12.40;;;6.85;;
13147;SDS011;6639;50.956;4.242;2024-01-10T11:36:22;10.95;;;7.38;;
13147;SDS011;6639;50.956;4.242;2024-01-10T11:38:54;9.07;;;7.43;;
13147;SDS011;6639;50.956;4.242;2024-01-10T11:41:27;8.90;;;6.70;;
13147;SDS011;6639;50.956;4.242;2024-01-10T11:46:55;9.23;;;6.75;;
13147;SDS011;6639;50.956;4.242;2024-01-10T11:49:23;9.43;;;7.15;;
13147;SDS011;6639;50.956;4.242;2024-01-10T11:51:52;9.15;;;7.07;;
13147;SDS011;6639;50.956;4.242;2024-01-10T11:54:40;10.82;;;7.22;;
13147;SDS011;6639;50.956;4.242;2024-01-10T11:57:10;11.93;;;7.40;;
13147;SDS011;6639;50.956;4.242;2024-01-10T11:59:39;8.65;;;7.05;;
13147;SDS011;6639;50.956;4.242;2024-01-10T12:02:08;9.55;;;8.02;;
13147;SDS011;6639;50.956;4.242;2024-01-10T12:04:35;9.90;;;7.35;;
13147;SDS011;6639;50.956;4.242;2024-01-10T12:07:02;10.95;;;7.38;;
13147;SDS011;6639;50.956;4.242;2024-01-10T12:09:30;10.77;;;7.90;;
13147;SDS011;6639;50.956;4.242;2024-01-10T12:11:57;9.35;;;6.90;;
13147;SDS011;6639;50.956;4.242;2024-01-10T12:14:24;12.80;;;7.93;;
13147;SDS011;6639;50.956;4.242;2024-01-10T12:16:53;14.30;;;9.05;;
13147;SDS011;6639;50.956;4.242;2024-01-10T12:19:20;11.98;;;7.88;;
13147;SDS011;6639;50.956;4.242;2024-01-10T12:21:47;13.90;;;9.15;;
13147;SDS011;6639;50.956;4.242;2024-01-10T12:24:15;11.05;;;7.07;;
13147;SDS011;6639;50.956;4.242;2024-01-10T12:26:45;10.27;;;7.88;;
13147;SDS011;6639;50.956;4.242;2024-01-10T12:29:12;7.72;;;6.93;;
13147;SDS011;6639;50.956;4.242;2024-01-10T12:31:39;11.80;;;7.72;;
13147;SDS011;6639;50.956;4.242;2024-01-10T12:34:08;11.30;;;7.20;;
13147;SDS011;6639;50.956;4.242;2024-01-10T12:36:35;9.88;;;8.18;;
13147;SDS011;6639;50.956;4.242;2024-01-10T12:39:03;13.15;;;8.15;;
13147;SDS011;6639;50.956;4.242;2024-01-10T12:41:32;9.30;;;7.05;;
13147;SDS011;6639;50.956;4.242;2024-01-10T12:44:00;11.35;;;7.60;;
13147;SDS011;6639;50.956;4.242;2024-01-10T12:46:28;10.70;;;6.88;;
13147;SDS011;6639;50.956;4.242;2024-01-10T12:48:59;9.27;;;7.40;;
13147;SDS011;6639;50.956;4.242;2024-01-10T12:51:29;10.75;;;7.70;;
13147;SDS011;6639;50.956;4.242;2024-01-10T12:53:56;11.10;;;7.93;;
13147;SDS011;6639;50.956;4.242;2024-01-10T12:56:24;11.00;;;7.88;;
13147;SDS011;6639;50.956;4.242;2024-01-10T12:58:52;11.25;;;7.70;;
13147;SDS011;6639;50.956;4.242;2024-01-10T13:01:20;11.70;;;8.20;;
13147;SDS011;6639;50.956;4.242;2024-01-10T13:03:47;11.48;;;8.02;;
13147;SDS011;6639;50.956;4.242;2024-01-10T13:06:14;14.25;;;7.93;;
13147;SDS011;6639;50.956;4.242;2024-01-10T13:08:45;10.05;;;8.30;;
13147;SDS011;6639;50.956;4.242;2024-01-10T13:11:12;11.68;;;7.78;;
13147;SDS011;6639;50.956;4.242;2024-01-10T13:13:39;13.30;;;7.60;;
13147;SDS011;6639;50.956;4.242;2024-01-10T13:16:08;11.17;;;7.70;;
13147;SDS011;6639;50.956;4.242;2024-01-10T13:18:36;11.50;;;8.00;;
13147;SDS011;6639;50.956;4.242;2024-01-10T13:21:03;10.33;;;7.93;;
13147;SDS011;6639;50.956;4.242;2024-01-10T13:23:31;10.00;;;7.97;;
13147;SDS011;6639;50.956;4.242;2024-01-10T13:26:00;11.83;;;7.83;;
13147;SDS011;6639;50.956;4.242;2024-01-10T13:28:27;10.77;;;7.40;;
13147;SDS011;6639;50.956;4.242;2024-01-10T13:30:54;11.73;;;8.27;;
13147;SDS011;6639;50.956;4.242;2024-01-10T13:33:22;10.50;;;8.53;;
13147;SDS011;6639;50.956;4.242;2024-01-10T13:35:50;11.38;;;7.40;;
13147;SDS011;6639;50.956;4.242;2024-01-10T13:38:18;9.70;;;7.38;;
13147;SDS011;6639;50.956;4.242;2024-01-10T13:40:45;10.13;;;7.70;;
13147;SDS011;6639;50.956;4.242;2024-01-10T13:43:14;11.73;;;7.55;;
13147;SDS011;6639;50.956;4.242;2024-01-10T13:45:42;11.57;;;8.20;;
13147;SDS011;6639;50.956;4.242;2024-01-10T13:48:09;13.73;;;8.63;;
13147;SDS011;6639;50.956;4.242;2024-01-10T13:50:36;11.45;;;7.88;;
13147;SDS011;6639;50.956;4.242;2024-01-10T13:53:03;12.90;;;8.07;;
13147;SDS011;6639;50.956;4.242;2024-01-10T13:55:30;12.63;;;8.13;;
13147;SDS011;6639;50.956;4.242;2024-01-10T13:57:57;12.00;;;9.13;;
13147;SDS011;6639;50.956;4.242;2024-01-10T14:00:26;11.20;;;7.95;;
13147;SDS011;6639;50.956;4.242;2024-01-10T14:02:53;12.53;;;7.97;;
13147;SDS011;6639;50.956;4.242;2024-01-10T14:05:24;12.50;;;7.83;;
13147;SDS011;6639;50.956;4.242;2024-01-10T14:07:52;12.70;;;8.02;;
13147;SDS011;6639;50.956;4.242;2024-01-10T14:10:19;11.82;;;8.95;;
13147;SDS011;6639;50.956;4.242;2024-01-10T14:12:46;13.33;;;8.27;;
13147;SDS011;6639;50.956;4.242;2024-01-10T14:15:13;10.63;;;8.03;;
13147;SDS011;6639;50.956;4.242;2024-01-10T14:17:43;9.70;;;7.50;;
13147;SDS011;6639;50.956;4.242;2024-01-10T14:20:10;11.90;;;7.87;;
13147;SDS011;6639;50.956;4.242;2024-01-10T14:22:38;14.43;;;8.97;;
13147;SDS011;6639;50.956;4.242;2024-01-10T14:25:07;12.40;;;8.63;;
13147;SDS011;6639;50.956;4.242;2024-01-10T14:27:35;10.23;;;7.17;;
13147;SDS011;6639;50.956;4.242;2024-01-10T14:30:04;12.77;;;9.03;;
13147;SDS011;6639;50.956;4.242;2024-01-10T14:32:34;11.97;;;8.30;;
13147;SDS011;6639;50.956;4.242;2024-01-10T14:35:02;11.43;;;7.70;;
13147;SDS011;6639;50.956;4.242;2024-01-10T14:37:31;11.03;;;8.10;;
13147;SDS011;6639;50.956;4.242;2024-01-10T14:40:00;11.43;;;7.67;;
13147;SDS011;6639;50.956;4.242;2024-01-10T14:42:28;11.20;;;8.00;;
13147;SDS011;6639;50.956;4.242;2024-01-10T14:44:55;11.70;;;8.17;;
13147;SDS011;6639;50.956;4.242;2024-01-10T14:47:23;13.87;;;8.10;;
13147;SDS011;6639;50.956;4.242;2024-01-10T14:49:50;13.47;;;8.40;;
13147;SDS011;6639;50.956;4.242;2024-01-10T14:52:18;13.37;;;7.50;;
13147;SDS011;6639;50.956;4.242;2024-01-10T14:54:45;10.87;;;7.83;;
13147;SDS011;6639;50.956;4.242;2024-01-10T14:57:12;11.03;;;8.07;;
13147;SDS011;6639;50.956;4.242;2024-01-10T14:59:39;13.20;;;8.30;;
13147;SDS011;6639;50.956;4.242;2024-01-10T15:02:06;15.73;;;9.20;;
13147;SDS011;6639;50.956;4.242;2024-01-10T15:04:36;13.70;;;8.83;;
13147;SDS011;6639;50.956;4.242;2024-01-10T15:07:04;12.73;;;8.40;;